createdAt,value
2018-09-21T00:00:47.311Z,23.60
2018-09-21T00:03:16.445Z,23.60
2018-09-21T00:05:44.835Z,23.60
2018-09-21T00:08:13.130Z,23.50
2018-09-21T00:10:41.439Z,23.50
2018-09-21T00:13:10.118Z,23.40
2018-09-21T00:15:38.413Z,23.40
2018-09-21T00:18:06.726Z,23.40
2018-09-21T00:20:34.974Z,23.40
2018-09-21T00:23:03.177Z,23.40
2018-09-21T00:25:31.899Z,23.30
2018-09-21T00:28:00.525Z,23.40
2018-09-21T00:30:28.985Z,23.20
2018-09-21T00:32:57.162Z,23.20
2018-09-21T00:35:25.476Z,23.20
2018-09-21T00:37:53.923Z,23.20
2018-09-21T00:40:22.312Z,23.10
2018-09-21T00:42:50.573Z,23.10
2018-09-21T00:45:18.822Z,23.10
2018-09-21T00:47:47.177Z,23.10
2018-09-21T00:50:16.115Z,23.20
2018-09-21T00:52:45.079Z,23.10
2018-09-21T00:55:13.494Z,23.10
2018-09-21T00:57:41.866Z,23.10
2018-09-21T01:00:10.082Z,23.10
2018-09-21T01:02:38.435Z,23.00
2018-09-21T01:05:06.970Z,23.00
2018-09-21T01:07:35.194Z,23.00
2018-09-21T01:10:03.628Z,22.90
2018-09-21T01:12:31.918Z,22.90
2018-09-21T01:15:00.370Z,22.90
2018-09-21T01:17:30.092Z,22.80
2018-09-21T01:19:58.431Z,22.80
2018-09-21T01:22:27.266Z,22.80
2018-09-21T01:24:55.575Z,22.70
2018-09-21T01:27:24.659Z,22.70
2018-09-21T01:29:53.238Z,22.70
2018-09-21T01:32:21.695Z,22.60
2018-09-21T01:34:49.982Z,22.70
2018-09-21T01:37:18.204Z,22.70
2018-09-21T01:39:46.617Z,22.70
2018-09-21T01:42:15.051Z,22.70
2018-09-21T01:44:43.496Z,22.60
2018-09-21T01:47:11.823Z,22.60
2018-09-21T01:49:40.087Z,22.60
2018-09-21T01:52:08.594Z,22.60
2018-09-21T01:54:37.006Z,22.60
2018-09-21T01:57:05.241Z,22.50
2018-09-21T01:59:33.499Z,22.50
2018-09-21T02:02:01.921Z,22.50
2018-09-21T02:04:35.364Z,22.40
2018-09-21T02:07:03.970Z,22.40
2018-09-21T02:09:32.237Z,22.40
2018-09-21T02:12:00.501Z,22.30
2018-09-21T02:14:28.749Z,22.20
2018-09-21T02:16:56.980Z,22.30
2018-09-21T02:19:25.238Z,22.20
2018-09-21T02:21:54.110Z,22.20
2018-09-21T02:24:22.799Z,22.10
2018-09-21T02:26:51.657Z,22.00
2018-09-21T02:29:19.842Z,21.90
2018-09-21T02:31:48.723Z,21.90
2018-09-21T02:34:17.585Z,21.80
2018-09-21T02:36:46.455Z,21.80
2018-09-21T02:39:14.701Z,21.80
2018-09-21T02:41:42.938Z,21.70
2018-09-21T02:44:11.128Z,21.70
2018-09-21T02:46:39.367Z,21.70
2018-09-21T02:49:07.683Z,21.60
2018-09-21T02:51:35.891Z,21.60
2018-09-21T02:54:04.124Z,21.50
2018-09-21T02:56:32.356Z,21.40
2018-09-21T02:59:01.026Z,21.40
2018-09-21T03:01:29.290Z,21.50
2018-09-21T03:03:57.489Z,21.40
2018-09-21T03:06:25.674Z,21.40
2018-09-21T03:08:54.202Z,21.30
2018-09-21T03:11:22.538Z,21.30
2018-09-21T03:13:50.713Z,21.30
2018-09-21T03:16:18.942Z,21.30
2018-09-21T03:18:47.282Z,21.20
2018-09-21T03:21:15.696Z,21.10
2018-09-21T03:23:43.910Z,21.00
2018-09-21T03:26:12.189Z,21.00
2018-09-21T03:28:40.456Z,20.80
2018-09-21T03:31:08.807Z,20.80
2018-09-21T03:33:37.411Z,20.70
2018-09-21T03:36:05.636Z,20.60
2018-09-21T03:38:33.815Z,20.60
2018-09-21T03:41:02.048Z,20.70
2018-09-21T03:43:30.337Z,20.60
2018-09-21T03:45:58.549Z,20.60
2018-09-21T03:48:26.820Z,20.40
2018-09-21T03:50:55.057Z,20.40
2018-09-21T03:53:23.457Z,20.50
2018-09-21T03:55:51.675Z,20.50
2018-09-21T03:58:20.096Z,20.50
2018-09-21T04:00:48.352Z,20.40
2018-09-21T04:03:16.790Z,20.30
2018-09-21T04:05:45.151Z,20.30
2018-09-21T04:08:13.434Z,20.30
2018-09-21T04:10:41.676Z,20.30
2018-09-21T04:13:09.951Z,20.30
2018-09-21T04:15:39.166Z,20.20
2018-09-21T04:18:07.517Z,20.20
2018-09-21T04:20:35.715Z,20.10
2018-09-21T04:23:04.020Z,20.20
2018-09-21T04:25:32.970Z,20.20
2018-09-21T04:28:02.205Z,20.20
2018-09-21T04:30:30.561Z,20.10
2018-09-21T04:32:59.268Z,20.00
2018-09-21T04:35:27.590Z,20.00
2018-09-21T04:37:55.781Z,20.00
2018-09-21T04:40:24.063Z,20.10
2018-09-21T04:42:52.374Z,20.10
2018-09-21T04:45:20.629Z,20.10
2018-09-21T04:47:48.870Z,20.10
2018-09-21T04:50:17.288Z,20.00
2018-09-21T04:52:45.563Z,20.00
2018-09-21T04:55:13.751Z,20.00
2018-09-21T04:57:42.180Z,20.00
2018-09-21T05:00:10.421Z,20.10
2018-09-21T05:02:38.665Z,20.10
2018-09-21T05:05:06.967Z,20.20
2018-09-21T05:07:35.402Z,20.20
2018-09-21T05:10:03.765Z,20.30
2018-09-21T05:12:32.419Z,20.30
2018-09-21T05:15:01.610Z,20.30
2018-09-21T05:17:29.972Z,20.30
2018-09-21T05:19:58.187Z,20.30
2018-09-21T05:22:26.408Z,20.30
2018-09-21T05:24:54.720Z,20.30
2018-09-21T05:27:23.028Z,20.40
2018-09-21T05:29:51.234Z,20.40
2018-09-21T05:32:19.443Z,20.50
2018-09-21T05:34:47.838Z,20.50
2018-09-21T05:37:15.959Z,20.60
2018-09-21T05:39:44.511Z,20.60
2018-09-21T05:42:12.716Z,20.60
2018-09-21T05:44:40.927Z,20.70
2018-09-21T05:47:09.401Z,20.60
2018-09-21T05:49:37.625Z,20.60
2018-09-21T05:52:05.843Z,20.60
2018-09-21T05:54:34.038Z,20.60
2018-09-21T05:57:02.433Z,20.70
2018-09-21T05:59:30.771Z,20.70
2018-09-21T06:01:59.051Z,20.70
2018-09-21T06:04:27.201Z,20.70
2018-09-21T06:06:55.651Z,20.70
2018-09-21T06:09:23.903Z,20.80
2018-09-21T06:11:52.116Z,20.80
2018-09-21T06:14:20.310Z,20.90
2018-09-21T06:16:48.587Z,21.00
2018-09-21T06:19:17.219Z,21.10
2018-09-21T06:21:45.614Z,21.30
2018-09-21T06:24:13.822Z,21.40
2018-09-21T06:26:42.102Z,21.70
2018-09-21T06:29:10.319Z,22.00
2018-09-21T06:31:38.630Z,22.00
2018-09-21T06:34:07.051Z,22.00
2018-09-21T06:36:35.265Z,22.20
2018-09-21T06:39:04.762Z,22.20
2018-09-21T06:41:32.990Z,22.20
2018-09-21T06:44:01.259Z,22.50
2018-09-21T06:46:29.566Z,22.70
2018-09-21T06:48:57.794Z,22.90
2018-09-21T06:51:25.992Z,23.00
2018-09-21T06:53:54.331Z,23.10
2018-09-21T06:56:22.682Z,23.20
2018-09-21T06:58:50.902Z,23.40
2018-09-21T07:01:19.408Z,23.60
2018-09-21T07:03:47.885Z,23.70
2018-09-21T07:06:16.391Z,23.60
2018-09-21T07:08:44.637Z,23.70
2018-09-21T07:11:12.867Z,23.60
2018-09-21T07:13:41.057Z,23.90
2018-09-21T07:16:09.488Z,24.10
2018-09-21T07:18:37.723Z,24.40
2018-09-21T07:21:05.948Z,24.80
2018-09-21T07:23:34.164Z,25.00
2018-09-21T07:26:02.478Z,25.10
2018-09-21T07:28:30.991Z,25.30
2018-09-21T07:30:59.200Z,25.50
2018-09-21T07:33:27.418Z,25.90
2018-09-21T07:35:55.682Z,26.20
2018-09-21T07:38:24.141Z,26.80
2018-09-21T07:40:52.535Z,27.40
2018-09-21T07:43:20.771Z,28.10
2018-09-21T07:45:49.325Z,28.40
2018-09-21T07:48:17.531Z,28.90
2018-09-21T07:50:46.043Z,29.70
2018-09-21T07:53:14.408Z,30.90
2018-09-21T07:55:42.673Z,32.10
2018-09-21T07:58:10.888Z,32.60
2018-09-21T08:00:39.264Z,32.90
2018-09-21T08:03:08.070Z,33.40
2018-09-21T08:05:36.330Z,33.60
2018-09-21T08:08:05.582Z,33.90
2018-09-21T08:10:33.851Z,34.20
2018-09-21T08:13:02.352Z,34.20
2018-09-21T08:15:31.025Z,33.60
2018-09-21T08:17:59.270Z,33.40
2018-09-21T08:20:28.014Z,34.20
2018-09-21T08:22:56.288Z,35.80
2018-09-21T08:25:26.218Z,37.40
2018-09-21T08:27:54.627Z,38.70
2018-09-21T08:30:22.942Z,40.00
2018-09-21T08:32:51.178Z,41.10
2018-09-21T08:35:19.393Z,41.50
2018-09-21T08:37:47.610Z,42.40
2018-09-21T08:40:15.851Z,42.80
2018-09-21T08:42:44.080Z,43.40
2018-09-21T08:45:12.345Z,44.00
2018-09-21T08:47:40.537Z,45.10
2018-09-21T08:50:09.766Z,45.80
2018-09-21T08:52:38.391Z,46.50
2018-09-21T08:55:07.273Z,46.80
2018-09-21T08:57:35.487Z,47.60
2018-09-21T09:00:03.753Z,48.40
2018-09-21T09:02:32.165Z,47.70
2018-09-21T09:05:01.059Z,47.70
2018-09-21T09:07:30.598Z,47.50
2018-09-21T09:09:58.798Z,46.30
2018-09-21T09:12:27.146Z,43.70
2018-09-21T09:14:55.408Z,41.40
2018-09-21T09:17:23.767Z,40.10
2018-09-21T09:19:52.369Z,39.30
2018-09-21T09:22:20.624Z,39.00
2018-09-21T09:24:48.976Z,38.20
2018-09-21T09:27:17.694Z,37.20
2018-09-21T09:29:46.151Z,37.20
2018-09-21T09:32:14.350Z,36.80
2018-09-21T09:34:42.567Z,36.50
2018-09-21T09:37:10.787Z,36.30
2018-09-21T09:39:39.203Z,35.50
2018-09-21T09:42:07.527Z,35.30
2018-09-21T09:44:35.798Z,35.50
2018-09-21T09:47:04.062Z,35.90
2018-09-21T09:49:32.297Z,36.70
2018-09-21T09:52:00.634Z,37.70
2018-09-21T09:54:28.882Z,38.80
2018-09-21T09:56:57.103Z,40.00
2018-09-21T09:59:25.352Z,41.60
2018-09-21T10:01:54.280Z,43.00
2018-09-21T10:04:22.543Z,42.90
2018-09-21T10:06:51.155Z,42.40
2018-09-21T10:09:19.520Z,42.30
2018-09-21T10:11:47.907Z,42.40
2018-09-21T10:14:16.243Z,42.70
2018-09-21T10:16:44.533Z,44.50
2018-09-21T10:19:12.790Z,46.60
2018-09-21T10:21:41.038Z,47.80
2018-09-21T10:24:09.473Z,46.90
2018-09-21T10:26:37.894Z,45.60
2018-09-21T10:29:06.276Z,44.80
2018-09-21T10:31:34.531Z,44.00
2018-09-21T10:34:02.710Z,44.00
2018-09-21T10:36:31.282Z,44.20
2018-09-21T10:38:59.908Z,46.00
2018-09-21T10:41:28.195Z,47.60
2018-09-21T10:43:56.530Z,48.20
2018-09-21T10:46:24.914Z,47.00
2018-09-21T10:48:53.295Z,45.60
2018-09-21T10:51:21.628Z,43.10
2018-09-21T10:53:49.880Z,40.50
2018-09-21T10:56:18.085Z,39.00
2018-09-21T10:58:46.513Z,37.20
2018-09-21T11:01:15.131Z,36.60
2018-09-21T11:03:43.406Z,37.00
2018-09-21T11:06:11.680Z,37.70
2018-09-21T11:08:39.994Z,37.90
2018-09-21T11:11:08.779Z,37.90
2018-09-21T11:13:37.155Z,37.90
2018-09-21T11:16:05.507Z,37.70
2018-09-21T11:18:33.813Z,37.60
2018-09-21T11:21:02.970Z,37.70
2018-09-21T11:23:31.350Z,38.80
2018-09-21T11:25:59.674Z,38.80
2018-09-21T11:28:27.860Z,39.00
2018-09-21T11:30:56.285Z,38.60
2018-09-21T11:33:25.312Z,37.80
2018-09-21T11:35:53.895Z,37.10
2018-09-21T11:38:22.156Z,36.70
2018-09-21T11:40:50.554Z,35.70
2018-09-21T11:43:18.955Z,35.00
2018-09-21T11:45:47.404Z,34.60
2018-09-21T11:48:15.891Z,34.70
2018-09-21T11:50:44.185Z,35.60
2018-09-21T11:53:12.785Z,36.00
2018-09-21T11:55:41.082Z,35.90
2018-09-21T11:58:09.911Z,35.30
2018-09-21T12:00:38.330Z,35.10
2018-09-21T12:03:06.707Z,35.00
2018-09-21T12:05:35.462Z,34.70
2018-09-21T12:08:03.735Z,34.40
2018-09-21T12:10:32.255Z,34.20
2018-09-21T12:13:00.698Z,33.90
2018-09-21T12:15:28.972Z,33.60
2018-09-21T12:17:57.178Z,33.40
2018-09-21T12:20:25.394Z,33.20
2018-09-21T12:22:53.748Z,33.00
2018-09-21T12:25:22.253Z,32.50
2018-09-21T12:27:50.854Z,32.10
2018-09-21T12:30:19.205Z,32.20
2018-09-21T12:32:47.542Z,32.30
2018-09-21T12:35:16.436Z,32.30
2018-09-21T12:37:44.688Z,32.20
2018-09-21T12:40:12.911Z,32.20
2018-09-21T12:42:41.273Z,32.30
2018-09-21T12:45:10.151Z,32.30
2018-09-21T12:47:38.452Z,32.10
2018-09-21T12:50:07.346Z,31.90
2018-09-21T12:52:35.985Z,31.70
2018-09-21T12:55:04.407Z,31.60
2018-09-21T12:57:32.660Z,31.40
2018-09-21T13:00:01.023Z,31.00
2018-09-21T13:02:29.338Z,30.60
2018-09-21T13:04:57.584Z,30.20
2018-09-21T13:07:25.800Z,30.10
2018-09-21T13:09:54.153Z,30.30
2018-09-21T13:12:22.401Z,30.40
2018-09-21T13:14:50.932Z,30.30
2018-09-21T13:17:19.149Z,30.40
2018-09-21T13:19:47.479Z,30.30
2018-09-21T13:22:15.843Z,30.60
2018-09-21T13:24:44.187Z,30.80
2018-09-21T13:27:12.528Z,30.90
2018-09-21T13:29:40.726Z,30.90
2018-09-21T13:32:09.211Z,30.80
2018-09-21T13:34:38.183Z,30.90
2018-09-21T13:37:06.548Z,30.90
2018-09-21T13:39:34.795Z,30.60
2018-09-21T13:42:03.043Z,30.50
2018-09-21T13:44:31.490Z,30.40
2018-09-21T13:46:59.871Z,30.30
2018-09-21T13:49:28.154Z,30.50
2018-09-21T13:51:56.458Z,30.80
2018-09-21T13:54:25.315Z,31.00
2018-09-21T13:56:53.850Z,30.70
2018-09-21T13:59:22.995Z,30.30
2018-09-21T14:01:51.210Z,30.00
2018-09-21T14:04:19.492Z,30.10
2018-09-21T14:06:47.715Z,30.40
2018-09-21T14:09:16.067Z,30.30
2018-09-21T14:11:44.292Z,30.50
2018-09-21T14:14:12.514Z,30.60
2018-09-21T14:16:40.925Z,30.60
2018-09-21T14:19:09.178Z,30.50
2018-09-21T14:21:37.586Z,30.50
2018-09-21T14:24:05.788Z,30.60
2018-09-21T14:26:34.005Z,30.70
2018-09-21T14:29:02.460Z,30.20
2018-09-21T14:31:30.593Z,30.10
2018-09-21T14:33:58.859Z,29.80
2018-09-21T14:36:27.075Z,29.60
2018-09-21T14:38:55.588Z,29.50
2018-09-21T14:41:24.093Z,29.20
2018-09-21T14:43:52.346Z,29.00
2018-09-21T14:46:20.591Z,28.90
2018-09-21T14:48:48.967Z,28.80
2018-09-21T14:51:17.861Z,28.70
2018-09-21T14:53:46.347Z,28.50
2018-09-21T14:56:14.555Z,28.80
2018-09-21T14:58:42.987Z,29.00
2018-09-21T15:01:11.226Z,28.90
2018-09-21T15:03:40.181Z,29.00
2018-09-21T15:06:08.978Z,29.10
2018-09-21T15:08:37.244Z,29.40
2018-09-21T15:11:05.472Z,29.10
2018-09-21T15:13:33.677Z,29.10
2018-09-21T15:16:02.511Z,28.90
2018-09-21T15:18:30.826Z,27.40
2018-09-21T15:20:59.339Z,26.40
2018-09-21T15:23:27.696Z,25.70
2018-09-21T15:25:55.901Z,25.30
2018-09-21T15:28:24.283Z,25.00
2018-09-21T15:30:52.675Z,24.60
2018-09-21T15:33:20.885Z,24.20
2018-09-21T15:35:49.071Z,23.80
2018-09-21T15:38:17.325Z,23.60
2018-09-21T15:40:45.571Z,23.40
2018-09-21T15:43:13.894Z,23.40
2018-09-21T15:45:42.107Z,23.40
2018-09-21T15:48:10.627Z,23.40
2018-09-21T15:50:39.013Z,23.60
2018-09-21T15:53:07.463Z,23.70
2018-09-21T15:55:35.699Z,24.00
2018-09-21T15:58:03.927Z,24.10
2018-09-21T16:00:32.164Z,24.00
2018-09-21T16:03:00.426Z,24.10
2018-09-21T16:05:28.663Z,24.20
2018-09-21T16:07:56.890Z,24.20
2018-09-21T16:10:25.244Z,24.10
2018-09-21T16:12:53.461Z,23.70
2018-09-21T16:15:21.675Z,23.20
2018-09-21T16:17:49.883Z,22.70
2018-09-21T16:20:18.070Z,22.30
2018-09-21T16:22:46.496Z,22.00
2018-09-21T16:25:14.714Z,21.60
2018-09-21T16:27:42.910Z,21.50
2018-09-21T16:30:11.150Z,21.60
2018-09-21T16:32:39.475Z,21.10
2018-09-21T16:35:07.729Z,20.50
2018-09-21T16:37:35.935Z,20.10
2018-09-21T16:40:04.158Z,19.90
2018-09-21T16:42:32.607Z,19.50
2018-09-21T16:45:01.603Z,19.20
2018-09-21T16:47:29.822Z,18.90
2018-09-21T16:49:58.330Z,18.40
2018-09-21T16:52:26.553Z,18.00
2018-09-21T16:54:54.823Z,17.90
2018-09-21T16:57:23.070Z,17.70
2018-09-21T16:59:51.330Z,17.50
2018-09-21T17:02:19.558Z,17.30
2018-09-21T17:04:47.941Z,17.20
2018-09-21T17:07:16.542Z,17.10
2018-09-21T17:09:46.349Z,17.00
2018-09-21T17:12:14.534Z,16.80
2018-09-21T17:14:42.751Z,16.80
2018-09-21T17:17:11.072Z,16.80
2018-09-21T17:19:39.959Z,16.70
2018-09-21T17:22:08.198Z,16.50
2018-09-21T17:24:36.415Z,16.50
2018-09-21T17:27:04.709Z,16.50
2018-09-21T17:29:32.903Z,16.40
2018-09-21T17:32:01.152Z,16.00
2018-09-21T17:34:29.320Z,15.90
2018-09-21T17:36:57.535Z,15.60
2018-09-21T17:39:25.780Z,15.50
2018-09-21T17:41:54.983Z,15.60
2018-09-21T17:44:23.304Z,15.70
2018-09-21T17:46:51.588Z,15.80
2018-09-21T17:49:19.763Z,16.10
2018-09-21T17:51:48.053Z,16.30
2018-09-21T17:54:16.367Z,16.20
2018-09-21T17:56:44.555Z,16.10
2018-09-21T17:59:12.773Z,16.40
2018-09-21T18:01:40.950Z,16.60
2018-09-21T18:04:09.342Z,16.50
2018-09-21T18:06:37.551Z,16.50
2018-09-21T18:09:08.163Z,16.50
2018-09-21T18:11:36.464Z,16.60
2018-09-21T18:14:04.776Z,16.60
2018-09-21T18:16:33.096Z,16.60
2018-09-21T18:19:01.527Z,17.00
2018-09-21T18:21:29.918Z,16.90
2018-09-21T18:23:58.499Z,16.90
2018-09-21T18:26:26.733Z,16.80
2018-09-21T18:28:55.062Z,16.80
2018-09-21T18:31:23.449Z,16.90
2018-09-21T18:33:51.619Z,16.90
2018-09-21T18:36:19.862Z,17.00
2018-09-21T18:38:48.128Z,17.20
2018-09-21T18:41:16.371Z,17.20
2018-09-21T18:43:44.737Z,17.00
2018-09-21T18:46:12.978Z,16.60
2018-09-21T18:48:41.173Z,16.60
2018-09-21T18:51:09.574Z,16.70
2018-09-21T18:53:37.930Z,16.70
2018-09-21T18:56:06.124Z,16.70
2018-09-21T18:58:34.349Z,16.80
2018-09-21T19:01:02.962Z,16.70
2018-09-21T19:03:31.766Z,16.40
2018-09-21T19:06:00.036Z,16.50
2018-09-21T19:08:28.395Z,16.70
2018-09-21T19:10:57.704Z,16.40
2018-09-21T19:13:25.946Z,16.20
2018-09-21T19:15:54.306Z,15.80
2018-09-21T19:18:22.520Z,15.70
2018-09-21T19:20:50.710Z,15.70
2018-09-21T19:23:18.931Z,15.80
2018-09-21T19:25:47.307Z,15.60
2018-09-21T19:28:15.854Z,15.40
2018-09-21T19:30:44.131Z,15.50
2018-09-21T19:33:12.339Z,15.50
2018-09-21T19:35:40.960Z,15.50
2018-09-21T19:38:09.747Z,15.60
2018-09-21T19:40:38.429Z,15.80
2018-09-21T19:43:06.830Z,15.70
2018-09-21T19:45:35.102Z,15.50
2018-09-21T19:48:03.292Z,15.30
2018-09-21T19:50:32.483Z,15.40
2018-09-21T19:53:00.719Z,15.40
2018-09-21T19:55:28.947Z,15.50
2018-09-21T19:57:57.179Z,15.50
2018-09-21T20:00:25.603Z,15.50
2018-09-21T20:02:54.541Z,15.40
2018-09-21T20:05:23.020Z,15.40
2018-09-21T20:07:51.287Z,15.70
2018-09-21T20:10:19.991Z,16.00
2018-09-21T20:12:48.323Z,16.00
2018-09-21T20:15:17.238Z,16.10
2018-09-21T20:17:45.578Z,16.20
2018-09-21T20:20:13.915Z,16.40
2018-09-21T20:22:42.101Z,16.50
2018-09-21T20:25:10.293Z,16.40
2018-09-21T20:27:38.479Z,16.20
2018-09-21T20:30:12.258Z,16.20
2018-09-21T20:32:45.937Z,16.20
2018-09-21T20:35:14.238Z,16.20
2018-09-21T20:37:42.446Z,16.10
2018-09-21T20:40:10.663Z,16.20
2018-09-21T20:42:39.061Z,16.30
2018-09-21T20:45:07.373Z,16.30
2018-09-21T20:47:35.746Z,16.50
2018-09-21T20:50:04.014Z,16.50
2018-09-21T20:52:32.329Z,16.50
2018-09-21T20:55:00.754Z,16.60
2018-09-21T20:57:28.981Z,16.70
2018-09-21T20:59:57.191Z,16.80
2018-09-21T21:02:26.267Z,16.70
2018-09-21T21:04:54.544Z,16.80
2018-09-21T21:07:22.774Z,16.80
2018-09-21T21:09:51.027Z,16.90
2018-09-21T21:12:19.319Z,16.90
2018-09-21T21:14:47.591Z,16.60
2018-09-21T21:17:16.379Z,16.60
2018-09-21T21:19:44.646Z,16.40
2018-09-21T21:22:12.846Z,16.30
2018-09-21T21:24:41.112Z,16.30
2018-09-21T21:27:10.040Z,16.40
2018-09-21T21:29:39.321Z,16.20
2018-09-21T21:32:07.550Z,16.40
2018-09-21T21:34:35.884Z,16.40
2018-09-21T21:37:04.103Z,16.40
2018-09-21T21:39:32.497Z,16.40
2018-09-21T21:42:00.900Z,16.60
2018-09-21T21:44:29.223Z,16.40
2018-09-21T21:46:58.425Z,16.40
2018-09-21T21:49:26.809Z,16.30
2018-09-21T21:51:55.250Z,16.10
2018-09-21T21:54:24.046Z,16.20
2018-09-21T21:56:52.375Z,16.30
2018-09-21T21:59:20.600Z,16.30
2018-09-21T22:01:49.309Z,16.50
2018-09-21T22:04:18.489Z,16.30
2018-09-21T22:06:47.854Z,16.40
2018-09-21T22:09:16.113Z,16.50
2018-09-21T22:11:49.474Z,16.60
2018-09-21T22:14:18.006Z,16.70
2018-09-21T22:16:46.376Z,16.90
2018-09-21T22:19:35.465Z,16.90
2018-09-21T22:22:23.781Z,17.00
2018-09-21T22:24:52.711Z,17.20
2018-09-21T22:27:20.917Z,17.20
2018-09-21T22:29:49.974Z,17.20
2018-09-21T22:32:18.245Z,17.30
2018-09-21T22:34:46.794Z,17.30
2018-09-21T22:37:15.263Z,17.40
2018-09-21T22:39:43.497Z,17.50
2018-09-21T22:42:11.674Z,17.20
2018-09-21T22:44:39.927Z,17.00
2018-09-21T22:47:08.438Z,16.80
2018-09-21T22:49:36.653Z,16.50
2018-09-21T22:52:04.875Z,16.60
2018-09-21T22:54:33.083Z,16.40
2018-09-21T22:57:02.377Z,16.40
2018-09-21T22:59:31.431Z,16.30
2018-09-21T23:01:59.776Z,16.20
2018-09-21T23:04:28.007Z,16.00
2018-09-21T23:06:56.246Z,15.90
2018-09-21T23:09:24.558Z,15.80
2018-09-21T23:11:52.773Z,15.60
2018-09-21T23:14:21.010Z,15.70
2018-09-21T23:16:49.358Z,15.70
2018-09-21T23:19:18.177Z,15.70
2018-09-21T23:21:46.455Z,15.60
2018-09-21T23:24:14.650Z,15.50
2018-09-21T23:26:42.896Z,15.60
2018-09-21T23:29:11.122Z,15.40
2018-09-21T23:31:39.460Z,15.30
2018-09-21T23:34:07.773Z,15.40
2018-09-21T23:36:35.957Z,15.10
2018-09-21T23:39:06.177Z,15.20
2018-09-21T23:41:34.433Z,15.20
2018-09-21T23:44:02.856Z,15.10
2018-09-21T23:46:31.097Z,15.20
2018-09-21T23:48:59.290Z,15.20
2018-09-21T23:51:27.488Z,15.20
2018-09-21T23:53:55.670Z,15.20
2018-09-21T23:56:24.910Z,15.20
2018-09-21T23:58:53.710Z,15.20
